Red Boiling Springs, Tennessee
Current Conditions -  °F | °C
As of 7:35 PM on Monday 24 Nov 2014 (Local Time) from KGLW Reporting Station
Clear Clear  
Wind Chill: 41°   Ceiling: Unl
Heat Index: 45°   Visibility: 10mi
Dew Point: 32°   Wind: 7mph
Humidity: 60%   Direction: 270°W
Pressure: 29.96"   Gusts: NA
Location:  36.53°N, 85.85°W
Report Text: KGLW 250135Z AUTO 27006KT 10SM CLR 07/00 A2996 RMK AO2 T00730000
Loading
Personal Weather Stations






























Interactive Weather Map New forecast layout! Learn more

10-Day Weather Forecast

Advertisements
Track Severe Weather on mobile